Time;durP1;ratioP1;P1;durP2;ratioP2;P2;SDS_P1;SDS_P2;PMS_P1;PMS_P2;Temp;Humidity;BMP_temperature;BMP_pressure;BME280_temperature;BME280_humidity;BME280_pressure;Samples;Min_cycle;Max_cycle;Signal;HPM_P1;HPM_P2
2022/06/20 00:00:30;;;;;;;6.40;2.10;;;;;;;20.04;56.48;99175.97;1756510;81;21597;-44
2022/06/20 00:02:58;;;;;;;4.45;2.02;;;;;;;20.06;56.35;99179.66;1756332;81;21535;-43
2022/06/20 00:05:30;;;;;;;2.95;1.90;;;;;;;20.08;56.24;99186.89;1756173;81;21013;-44
2022/06/20 00:07:58;;;;;;;5.67;1.90;;;;;;;20.07;56.07;99187.48;1756409;81;21025;-44
2022/06/20 00:10:28;;;;;;;3.22;1.98;;;;;;;20.08;55.96;99178.64;1756295;81;21579;-44
2022/06/20 00:12:55;;;;;;;4.35;2.33;;;;;;;20.08;55.99;99180.02;1756202;81;21136;-44
2022/06/20 00:15:30;;;;;;;5.22;2.42;;;;;;;20.10;55.90;99181.12;1756254;81;21065;-44
2022/06/20 00:17:59;;;;;;;5.08;2.08;;;;;;;20.11;56.04;99181.30;1756333;81;20997;-44
2022/06/20 00:20:27;;;;;;;4.30;1.98;;;;;;;20.12;55.67;99179.33;1746237;81;21026;-44
2022/06/20 00:22:56;;;;;;;4.08;1.80;;;;;;;20.11;55.79;99184.05;1743118;81;21437;-44
2022/06/20 00:25:25;;;;;;;4.78;2.10;;;;;;;20.12;56.01;99187.58;1743251;81;20970;-44
2022/06/20 00:27:57;;;;;;;4.60;2.00;;;;;;;20.13;56.15;99186.39;1742978;82;21500;-43
2022/06/20 00:30:21;;;;;;;5.67;2.63;;;;;;;20.14;56.10;99186.56;1742839;81;20962;-44
2022/06/20 00:32:49;;;;;;;3.47;2.25;;;;;;;20.12;55.87;99189.73;1743031;82;21042;-44
2022/06/20 00:35:16;;;;;;;5.25;2.20;;;;;;;20.11;55.55;99185.43;1743011;81;21082;-44
2022/06/20 00:37:44;;;;;;;4.53;2.50;;;;;;;20.11;55.39;99183.28;1742952;81;21615;-44
2022/06/20 00:40:27;;;;;;;3.20;2.20;;;;;;;20.12;55.90;99185.61;1742908;82;21005;-44
2022/06/20 00:42:55;;;;;;;3.87;1.98;;;;;;;20.12;56.10;99187.58;1742788;82;21614;-44
2022/06/20 00:45:23;;;;;;;3.35;2.20;;;;;;;20.10;56.18;99183.88;1742990;82;21065;-44
2022/06/20 00:47:52;;;;;;;5.62;2.87;;;;;;;20.10;56.44;99180.34;1742875;81;21090;-44
2022/06/20 00:50:27;;;;;;;6.10;2.55;;;;;;;20.09;56.78;99178.81;1743077;81;20982;-44
2022/06/20 00:53:04;;;;;;;6.83;2.33;;;;;;;20.08;56.85;99181.39;1743111;82;21029;-44
2022/06/20 00:55:49;;;;;;;4.33;2.37;;;;;;;20.03;57.39;99179.92;1742842;81;21013;-44
2022/06/20 00:58:37;;;;;;;3.87;2.35;;;;;;;19.99;57.46;99177.86;1731194;82;21093;-44
2022/06/20 01:01:07;;;;;;;4.70;2.30;;;;;;;19.95;57.05;99180.66;1743030;82;21293;-44
2022/06/20 01:03:37;;;;;;;3.70;2.20;;;;;;;19.89;57.00;99177.48;1757400;81;21029;-44
2022/06/20 01:06:13;;;;;;;3.47;2.00;;;;;;;19.84;56.72;99165.00;1743225;81;20895;-44
2022/06/20 01:08:44;;;;;;;5.60;2.50;;;;;;;19.82;56.81;99168.77;1743076;82;21081;-44
2022/06/20 01:11:27;;;;;;;3.02;1.82;;;;;;;19.80;56.19;99164.91;1743273;81;21002;-44
2022/06/20 01:13:55;;;;;;;4.08;2.12;;;;;;;19.77;56.08;99164.37;1743290;81;21197;-44
2022/06/20 01:16:32;;;;;;;3.12;1.92;;;;;;;19.71;55.58;99161.34;1742901;82;21559;-44
2022/06/20 01:19:01;;;;;;;3.33;1.70;;;;;;;19.67;55.68;99155.14;1743242;81;20915;-44
2022/06/20 01:21:33;;;;;;;3.50;1.85;;;;;;;19.63;55.53;99149.55;1750884;82;21894;-44
2022/06/20 01:24:23;;;;;;;2.77;1.62;;;;;;;19.61;55.49;99151.34;1751256;82;21077;-44
2022/06/20 01:27:19;;;;;;;4.85;2.08;;;;;;;19.62;56.12;99157.62;1751105;82;21156;-44
2022/06/20 01:29:47;;;;;;;4.87;2.10;;;;;;;19.60;56.29;99154.53;1750995;81;21066;-44
2022/06/20 01:32:15;;;;;;;2.85;1.75;;;;;;;19.55;56.00;99155.03;1751104;82;21021;-44
2022/06/20 01:34:42;;;;;;;5.25;1.75;;;;;;;19.51;55.99;99153.11;1756931;81;21034;-44
2022/06/20 01:37:25;;;;;;;2.75;1.65;;;;;;;19.49;55.99;99139.63;1750868;82;21057;-44
2022/06/20 01:40:00;;;;;;;3.12;2.00;;;;;;;19.45;55.84;99142.45;1750821;82;21262;-44
2022/06/20 01:42:28;;;;;;;3.02;1.82;;;;;;;19.40;55.80;99144.30;1750954;82;20990;-44
2022/06/20 01:45:57;;;;;;;4.00;2.08;;;;;;;19.35;55.85;99144.01;1751049;82;21457;-44
2022/06/20 01:47:39;;;;;;;2.67;1.90;;;;;;;19.28;55.90;99140.80;1748389;82;21022;-44
2022/06/20 01:50:08;;;;;;;2.72;1.62;;;;;;;19.19;56.06;99139.80;1751152;82;21508;-44
2022/06/20 01:52:41;;;;;;;4.92;2.10;;;;;;;19.15;56.21;99140.48;1751502;82;21172;-44
2022/06/20 01:55:12;;;;;;;2.83;1.55;;;;;;;19.11;56.26;99141.92;1751246;82;20994;-44
2022/06/20 01:57:42;;;;;;;3.30;1.90;;;;;;;19.05;56.45;99142.23;1751243;82;21025;-44
2022/06/20 02:00:19;;;;;;;2.55;1.60;;;;;;;19.03;56.60;99136.37;1751045;82;20986;-44
2022/06/20 02:02:50;;;;;;;1.60;1.47;;;;;;;19.02;56.53;99147.20;1750964;82;20987;-44
2022/06/20 02:05:20;;;;;;;2.42;1.60;;;;;;;19.00;56.81;99148.21;1750893;82;21075;-44
2022/06/20 02:07:47;;;;;;;2.25;1.70;;;;;;;18.98;56.68;99150.00;1751094;82;21508;-44
2022/06/20 02:10:20;;;;;;;3.02;1.70;;;;;;;18.99;56.71;99152.92;1750929;82;21012;-44
2022/06/20 02:12:47;;;;;;;4.47;1.87;;;;;;;18.97;56.61;99157.30;1750993;82;20985;-44
2022/06/20 02:15:20;;;;;;;3.62;1.70;;;;;;;18.91;56.58;99154.27;1750974;82;21013;-44
2022/06/20 02:17:46;;;;;;;2.72;1.77;;;;;;;18.89;56.76;99160.77;1750740;82;21690;-43
2022/06/20 02:20:17;;;;;;;3.33;2.00;;;;;;;18.90;56.99;99158.20;1747591;82;21034;-43
2022/06/20 02:22:44;;;;;;;3.98;2.00;;;;;;;18.69;57.06;99123.48;1742853;82;21005;-44
2022/06/20 02:25:15;;;;;;;3.37;1.60;;;;;;;18.94;56.92;99157.53;1743041;82;21011;-44
2022/06/20 02:27:59;;;;;;;2.33;1.90;;;;;;;18.96;56.80;99162.61;1743045;81;21590;-44
2022/06/20 02:30:26;;;;;;;4.30;1.80;;;;;;;18.97;56.54;99164.17;1742349;81;22170;-44
2022/06/20 02:33:05;;;;;;;4.33;1.80;;;;;;;18.96;56.58;99166.14;1743031;82;21005;-44
2022/06/20 02:35:32;;;;;;;3.22;2.00;;;;;;;18.99;56.64;99168.03;1742622;81;20942;-44
2022/06/20 02:38:00;;;;;;;3.85;1.77;;;;;;;19.03;57.20;99167.37;1743201;81;21081;-44
2022/06/20 02:40:28;;;;;;;3.58;2.08;;;;;;;19.07;56.70;99170.83;1743176;81;21006;-44
2022/06/20 02:43:05;;;;;;;4.15;2.10;;;;;;;19.09;56.36;99171.19;1743119;81;21219;-44
2022/06/20 02:45:33;;;;;;;2.98;2.15;;;;;;;19.11;56.33;99170.78;1712358;81;20954;-44
2022/06/20 02:48:04;;;;;;;2.92;1.85;;;;;;;19.13;56.58;99178.58;1757457;81;20999;-44
2022/06/20 02:50:36;;;;;;;2.42;1.82;;;;;;;19.16;56.38;99178.53;1742958;82;21501;-44
2022/06/20 02:53:25;;;;;;;7.08;2.10;;;;;;;19.19;56.47;99182.41;1743343;81;20994;-43
2022/06/20 02:55:52;;;;;;;4.85;2.25;;;;;;;19.21;56.83;99186.30;1743085;81;21147;-44
2022/06/20 02:58:25;;;;;;;4.22;2.02;;;;;;;19.22;56.85;99190.57;1742875;81;20966;-44
2022/06/20 03:01:00;;;;;;;4.83;1.90;;;;;;;19.20;56.59;99192.98;1742986;82;21010;-44
2022/06/20 03:03:33;;;;;;;2.72;1.77;;;;;;;19.19;56.38;99188.67;1743122;82;20974;-44
2022/06/20 03:06:00;;;;;;;4.78;1.82;;;;;;;19.17;56.45;99187.56;1743042;81;21038;-44
2022/06/20 03:08:28;;;;;;;5.22;2.00;;;;;;;19.18;56.33;99181.62;1742866;81;21283;-44
2022/06/20 03:10:55;;;;;;;2.27;1.57;;;;;;;19.22;56.42;99190.57;1742810;82;20993;-44
2022/06/20 03:13:22;;;;;;;2.83;1.95;;;;;;;19.26;56.41;99188.55;1742845;82;20969;-44
2022/06/20 03:15:51;;;;;;;2.60;1.75;;;;;;;19.28;56.02;99184.77;1743006;82;20922;-44
2022/06/20 03:18:20;;;;;;;3.27;2.10;;;;;;;19.32;56.05;99187.44;1743053;81;21480;-44
2022/06/20 03:20:49;;;;;;;1.70;1.60;;;;;;;19.35;56.04;99183.27;1742935;81;20997;-44
2022/06/20 03:23:32;;;;;;;3.70;1.98;;;;;;;19.39;55.63;99182.59;1742609;82;21559;-44
2022/06/20 03:26:03;;;;;;;2.87;1.82;;;;;;;19.40;55.45;99189.66;1742988;81;20977;-44
2022/06/20 03:28:31;;;;;;;1.92;1.55;;;;;;;19.40;55.83;99189.66;1757266;81;20934;-44
2022/06/20 03:30:59;;;;;;;4.62;2.00;;;;;;;19.40;55.93;99186.91;1742986;82;21022;-44
2022/06/20 03:33:27;;;;;;;2.42;1.80;;;;;;;19.44;56.05;99186.27;1743069;82;22108;-44
2022/06/20 03:36:13;;;;;;;3.45;2.00;;;;;;;19.47;56.10;99185.41;1743005;82;21025;-44
2022/06/20 03:38:42;;;;;;;3.50;1.90;;;;;;;19.49;56.31;99177.52;1742933;81;20954;-44
2022/06/20 03:41:10;;;;;;;2.27;1.85;;;;;;;19.53;56.36;99176.06;1743525;82;20910;-44
2022/06/20 03:43:39;;;;;;;2.92;1.72;;;;;;;19.56;56.30;99173.09;1757258;81;21500;-44
2022/06/20 03:46:11;;;;;;;3.45;1.98;;;;;;;19.57;56.30;99169.11;1742875;82;21288;-44
2022/06/20 03:48:53;;;;;;;3.22;1.80;;;;;;;19.59;56.06;99166.12;1742799;82;20915;-44
2022/06/20 03:51:21;;;;;;;2.77;1.77;;;;;;;19.62;55.88;99158.39;1721259;81;20982;-44
2022/06/20 03:54:14;;;;;;;3.17;1.90;;;;;;;19.69;55.58;99169.86;1742838;81;21515;-44
2022/06/20 03:56:54;;;;;;;4.30;1.82;;;;;;;19.72;55.52;99160.14;1742785;81;21364;-44
2022/06/20 03:59:28;;;;;;;2.65;2.10;;;;;;;19.74;55.53;99161.10;1743073;82;21193;-43
2022/06/20 04:02:01;;;;;;;2.67;2.10;;;;;;;19.80;55.48;99158.03;1742934;81;20931;-44
2022/06/20 04:04:34;;;;;;;2.35;1.90;;;;;;;19.85;55.37;99154.16;1742847;81;21017;-44
2022/06/20 04:07:06;;;;;;;3.77;1.75;;;;;;;19.90;55.28;99143.24;1742429;81;21456;-44
2022/06/20 04:13:00;;;;;;;3.95;2.05;;;;;;;20.00;54.81;99133.20;1707245;83;21053;-44
2022/06/20 04:15:41;;;;;;;6.58;1.90;;;;;;;20.07;54.55;99135.80;1705839;84;21000;-44
2022/06/20 04:18:27;;;;;;;3.42;1.80;;;;;;;20.12;54.23;99130.56;1706887;84;21033;-44
2022/06/20 04:21:03;;;;;;;4.53;2.10;;;;;;;20.20;54.30;99128.41;1710209;83;21024;-44
2022/06/20 04:23:56;;;;;;;3.52;1.95;;;;;;;20.26;53.74;99121.97;1714971;83;21087;-44
2022/06/20 04:26:40;;;;;;;5.97;1.75;;;;;;;20.34;53.42;99120.61;1714862;83;21571;-44
2022/06/20 04:29:21;;;;;;;2.58;1.60;;;;;;;20.43;53.23;99115.86;1714587;83;21016;-44
2022/06/20 04:31:59;;;;;;;3.52;1.77;;;;;;;20.51;52.95;99104.86;1714716;83;20929;-43
2022/06/20 04:34:39;;;;;;;3.87;2.08;;;;;;;20.60;52.77;99105.62;1750698;82;21488;-44
2022/06/20 04:37:20;;;;;;;1.85;1.60;;;;;;;20.77;52.75;99089.99;1751011;82;21492;-44
2022/06/20 04:39:58;;;;;;;5.03;1.87;;;;;;;20.77;52.75;99089.99;1750675;82;21151;-44
2022/06/20 04:42:39;;;;;;;4.08;1.85;;;;;;;20.88;51.65;99090.31;1751171;82;21771;-44
2022/06/20 04:45:20;;;;;;;4.45;1.72;;;;;;;20.97;52.01;99085.72;1746138;81;20990;-44
2022/06/20 04:48:16;;;;;;;2.58;2.00;;;;;;;21.08;51.81;99086.20;1751133;82;21088;-44
2022/06/20 04:50:46;;;;;;;2.58;1.90;;;;;;;21.19;51.14;99090.84;1750984;82;21068;-44
2022/06/20 04:53:19;;;;;;;3.83;1.80;;;;;;;21.29;51.01;99084.86;1750848;82;21135;-44
2022/06/20 04:55:51;;;;;;;3.02;1.70;;;;;;;21.40;50.94;99085.91;1714726;83;21012;-44
2022/06/20 04:58:23;;;;;;;3.65;1.82;;;;;;;21.49;50.33;99082.70;1714824;83;22042;-44
2022/06/20 05:00:51;;;;;;;3.62;1.98;;;;;;;21.59;50.81;99083.59;1715037;83;21531;-44
2022/06/20 05:03:24;;;;;;;4.28;1.82;;;;;;;21.69;50.48;99083.24;1714804;83;21013;-44
2022/06/20 05:05:54;;;;;;;3.90;2.10;;;;;;;21.81;50.50;99091.97;1715107;83;21109;-44
2022/06/20 05:08:31;;;;;;;5.15;1.87;;;;;;;21.91;49.48;99090.87;1715061;83;21080;-44
2022/06/20 05:11:33;;;;;;;2.47;1.60;;;;;;;22.01;48.96;99093.33;1715131;83;21507;-44
2022/06/20 05:14:08;;;;;;;3.72;1.80;;;;;;;22.12;48.47;99103.27;1714846;83;21012;-44
2022/06/20 05:16:42;;;;;;;2.67;1.87;;;;;;;22.20;48.25;99104.57;1715259;83;21031;-44
2022/06/20 05:19:18;;;;;;;3.15;1.60;;;;;;;22.28;48.70;99108.03;1715262;83;21793;-44
2022/06/20 05:21:50;;;;;;;2.98;1.47;;;;;;;22.38;47.94;99103.38;1715045;83;20997;-44
2022/06/20 05:24:21;;;;;;;2.25;1.62;;;;;;;22.45;47.45;99093.48;1715081;83;21118;-44
2022/06/20 05:26:51;;;;;;;2.33;1.70;;;;;;;22.54;47.58;99099.09;1715311;83;21032;-44
2022/06/20 05:29:26;;;;;;;4.25;1.67;;;;;;;22.64;46.51;99092.44;1715262;83;20989;-44
2022/06/20 05:31:55;;;;;;;2.87;1.50;;;;;;;22.74;46.33;99091.94;1749638;81;21254;-45
2022/06/20 05:34:52;;;;;;;2.62;1.55;;;;;;;22.81;45.08;99095.81;1714812;83;21008;-44
2022/06/20 05:37:43;;;;;;;2.77;1.47;;;;;;;22.87;46.21;99093.42;1714955;83;21016;-44
2022/06/20 05:40:18;;;;;;;1.55;1.45;;;;;;;22.95;45.76;99089.17;1713875;83;21584;-45
2022/06/20 05:42:45;;;;;;;2.67;1.60;;;;;;;23.05;45.33;99083.70;1714905;83;21039;-44
2022/06/20 05:45:15;;;;;;;4.03;1.60;;;;;;;23.14;45.15;99074.12;1715078;83;21058;-45
2022/06/20 05:47:42;;;;;;;;;;;;;;;23.21;44.73;99071.84;1717675;83;21794;-45
2022/06/20 05:50:32;;;;;;;3.33;1.60;;;;;;;23.30;43.74;99060.06;1699140;84;20141;-45
2022/06/20 05:53:01;;;;;;;2.33;1.72;;;;;;;23.29;43.53;99043.30;1707236;84;21105;-45
2022/06/20 05:55:35;;;;;;;1.57;1.47;;;;;;;23.39;43.66;99037.38;1695922;84;21084;-45
2022/06/20 05:58:02;;;;;;;2.50;1.60;;;;;;;23.48;43.22;99026.98;1689683;83;21924;-45
2022/06/20 06:00:33;;;;;;;3.65;1.50;;;;;;;23.55;43.86;99037.78;1694579;84;21107;-45
2022/06/20 06:03:15;;;;;;;4.28;1.75;;;;;;;23.64;43.59;99034.28;1694847;84;21104;-45
2022/06/20 06:05:58;;;;;;;2.10;1.60;;;;;;;23.70;43.02;99029.70;1694710;84;21897;-45
2022/06/20 06:08:50;;;;;;;3.55;1.62;;;;;;;23.77;42.67;99030.17;1694834;84;21005;-45
2022/06/20 06:11:28;;;;;;;3.45;1.60;;;;;;;23.82;42.24;99024.03;1693870;84;21844;-45
2022/06/20 06:14:21;;;;;;;2.17;1.32;;;;;;;23.90;41.60;99012.69;1694613;84;21575;-45
2022/06/20 06:17:08;;;;;;;3.12;1.65;;;;;;;23.98;41.61;99009.77;1694753;84;21342;-45
2022/06/20 06:19:57;;;;;;;3.10;1.70;;;;;;;24.06;42.06;99011.04;1694219;84;21607;-45
2022/06/20 06:22:29;;;;;;;3.80;1.70;;;;;;;24.12;40.58;99009.95;1688729;83;21026;-45
2022/06/20 06:25:00;;;;;;;1.50;1.30;;;;;;;24.22;39.78;99005.23;1687097;85;21049;-45
2022/06/20 06:27:30;;;;;;;2.42;1.80;;;;;;;24.32;40.69;98997.08;1686747;85;21005;-45
2022/06/20 06:30:44;;;;;;;2.02;1.37;;;;;;;24.43;40.51;98998.79;1686895;85;21009;-45
2022/06/20 06:33:25;;;;;;;8.43;1.82;;;;;;;24.55;39.80;98998.46;1686802;85;21064;-44
2022/06/20 06:35:57;;;;;;;3.10;1.30;;;;;;;24.66;39.43;98998.16;1653255;85;21026;-45
2022/06/20 06:38:45;;;;;;;3.08;1.20;;;;;;;24.77;38.95;98993.53;1686985;85;21108;-45
2022/06/20 06:41:17;;;;;;;2.45;1.37;;;;;;;24.88;38.78;98978.61;1686668;85;21839;-45
2022/06/20 06:43:46;;;;;;;1.80;1.20;;;;;;;25.00;39.48;98981.80;1686740;84;21575;-45
2022/06/20 06:46:25;;;;;;;1.45;1.30;;;;;;;25.16;38.27;98982.69;1686920;85;21057;-45
2022/06/20 06:49:31;;;;;;;4.25;1.30;;;;;;;25.27;37.51;98985.10;1686998;85;21702;-45
2022/06/20 06:52:07;;;;;;;1.30;1.20;;;;;;;25.36;36.40;98971.22;1683350;85;21111;-45
2022/06/20 06:54:46;;;;;;;3.17;1.17;;;;;;;25.45;37.71;98968.40;1686929;85;21001;-45
2022/06/20 06:57:34;;;;;;;1.87;1.10;;;;;;;25.58;36.77;98957.09;1687112;85;20950;-45
2022/06/20 07:00:16;;;;;;;1.65;1.00;;;;;;;25.72;37.21;98969.52;1687094;85;21619;-45
2022/06/20 07:02:52;;;;;;;2.20;1.10;;;;;;;25.83;37.27;98970.54;1687262;85;21085;-45
2022/06/20 07:05:41;;;;;;;2.00;1.12;;;;;;;25.95;35.32;98979.86;1686814;85;21765;-45
2022/06/20 07:08:18;;;;;;;3.55;1.32;;;;;;;26.04;35.16;98964.55;1686791;85;20949;-45
2022/06/20 07:10:52;;;;;;;3.40;1.10;;;;;;;26.11;34.81;98976.67;1686744;85;21621;-45
2022/06/20 07:13:30;;;;;;;3.05;1.15;;;;;;;26.19;35.99;98968.11;1687000;85;21385;-45
2022/06/20 07:15:59;;;;;;;1.50;1.10;;;;;;;26.30;34.96;98979.49;1686688;85;21057;-45
2022/06/20 07:18:42;;;;;;;2.40;1.07;;;;;;;26.39;34.33;98979.41;1687122;85;21089;-45
2022/06/20 07:21:13;;;;;;;7.92;1.30;;;;;;;26.48;35.42;98977.83;1686779;84;21100;-45
2022/06/20 07:23:42;;;;;;;2.22;1.30;;;;;;;26.57;34.94;98970.79;1686937;85;20965;-45
2022/06/20 07:26:12;;;;;;;1.42;1.32;;;;;;;26.68;35.03;98972.36;1686856;85;21075;-45
2022/06/20 07:28:46;;;;;;;2.50;1.32;;;;;;;26.78;33.77;98965.47;1687170;85;21052;-45
2022/06/20 07:31:33;;;;;;;2.40;1.20;;;;;;;26.86;34.51;98972.23;1686853;85;21150;-45
2022/06/20 07:34:17;;;;;;;2.55;1.27;;;;;;;26.97;34.97;98982.77;1686759;85;21001;-45
2022/06/20 07:37:15;;;;;;;4.60;1.50;;;;;;;27.07;34.69;98975.86;1687026;84;21097;-45
2022/06/20 07:40:00;;;;;;;5.25;1.30;;;;;;;27.21;34.48;98982.03;1674801;85;21073;-46
2022/06/20 07:42:44;;;;;;;2.50;1.20;;;;;;;27.33;33.67;98980.21;1686961;85;21587;-45
2022/06/20 07:45:28;;;;;;;3.42;1.30;;;;;;;27.43;33.07;98977.46;1686521;85;22050;-45
2022/06/20 07:48:01;;;;;;;1.40;1.02;;;;;;;27.45;31.87;98963.19;1686998;85;21017;-45
2022/06/20 07:50:37;;;;;;;2.75;1.32;;;;;;;27.55;32.55;98966.64;1686767;85;20962;-45
2022/06/20 07:53:22;;;;;;;1.45;1.10;;;;;;;27.62;32.16;98974.61;1686741;85;21072;-45
2022/06/20 07:56:00;;;;;;;2.42;1.20;;;;;;;27.67;32.29;98969.75;1686298;85;21093;-45
2022/06/20 07:58:31;;;;;;;6.45;1.20;;;;;;;27.74;31.79;98969.33;1686659;85;20950;-45
2022/06/20 08:00:58;;;;;;;3.60;1.22;;;;;;;27.80;31.41;98979.92;1686941;85;21543;-45
2022/06/20 08:03:40;;;;;;;1.77;1.10;;;;;;;27.84;31.89;98977.70;1686786;85;21080;-45
2022/06/20 08:06:36;;;;;;;3.67;1.30;;;;;;;27.85;31.42;98981.25;1686787;85;21061;-45
2022/06/20 08:09:36;;;;;;;2.72;1.15;;;;;;;27.87;31.56;98969.78;1686775;85;21057;-45
2022/06/20 08:12:23;;;;;;;2.62;1.20;;;;;;;27.90;31.55;98961.83;1687021;85;22029;-45
2022/06/20 08:15:05;;;;;;;6.45;1.20;;;;;;;27.98;31.59;98959.41;1684161;85;20950;-45
2022/06/20 08:17:32;;;;;;;1.95;1.10;;;;;;;28.09;31.12;98954.73;1682847;85;21067;-45
2022/06/20 08:20:00;;;;;;;2.08;1.32;;;;;;;28.16;31.08;98954.20;1686802;85;21048;-45
2022/06/20 08:22:47;;;;;;;2.25;1.10;;;;;;;28.25;31.72;98945.06;1691352;83;21554;-45
2022/06/20 08:25:22;;;;;;;3.58;1.10;;;;;;;28.40;30.95;98943.58;1697112;84;21168;-45
2022/06/20 08:28:10;;;;;;;2.75;1.00;;;;;;;28.37;30.98;98934.16;1696994;84;21611;-45
2022/06/20 08:30:52;;;;;;;5.08;1.22;;;;;;;28.53;30.23;98943.97;1697131;84;20980;-45
2022/06/20 08:33:39;;;;;;;1.72;1.20;;;;;;;28.57;30.95;98947.92;1697345;84;21055;-45
2022/06/20 08:37:23;;;;;;;2.67;1.30;;;;;;;28.75;31.51;98955.39;1796997;79;22177;-45
2022/06/20 08:40:01;;;;;;;1.92;1.30;;;;;;;28.76;30.55;98951.32;1756297;81;21641;-45
2022/06/20 08:42:54;;;;;;;2.93;1.40;;;;;;;28.85;29.66;98961.56;1755197;81;21090;-45
2022/06/20 08:45:44;;;;;;;3.08;1.25;;;;;;;28.83;29.78;98949.50;1756905;81;20914;-45
2022/06/20 08:48:19;;;;;;;3.12;1.05;;;;;;;28.84;30.12;98953.83;1687030;81;21487;-45
2022/06/20 08:51:10;;;;;;;3.90;1.02;;;;;;;28.92;30.57;98947.92;1708842;83;20968;-45
2022/06/20 08:53:59;;;;;;;3.90;1.32;;;;;;;28.98;30.42;98957.75;1723193;83;21527;-45
2022/06/20 08:56:59;;;;;;;2.95;1.40;;;;;;;29.06;30.26;98946.88;1723322;83;21092;-45
2022/06/20 08:59:34;;;;;;;5.10;0.90;;;;;;;29.13;30.08;98947.84;1723030;83;21007;-45
2022/06/20 09:02:41;;;;;;;5.80;1.20;;;;;;;29.18;30.01;98932.53;1723088;83;20964;-45
2022/06/20 09:05:52;;;;;;;2.77;1.30;;;;;;;29.26;30.06;98922.44;1722965;83;21604;-46
2022/06/20 09:09:02;;;;;;;2.27;1.20;;;;;;;29.35;30.04;98938.25;1723254;83;21554;-45
2022/06/20 09:11:48;;;;;;;3.98;1.12;;;;;;;29.44;29.73;98932.47;1723048;83;20985;-45
2022/06/20 09:14:31;;;;;;;3.02;1.00;;;;;;;29.45;29.33;98921.44;1720842;83;21051;-45
2022/06/20 09:17:23;;;;;;;2.00;1.17;;;;;;;29.47;29.37;98914.73;1723466;83;21533;-45
2022/06/20 09:20:17;;;;;;;1.80;0.98;;;;;;;29.53;29.24;98907.12;1723110;83;20895;-45
2022/06/20 09:23:18;;;;;;;1.85;1.20;;;;;;;29.54;28.86;98915.65;1723172;83;21032;-45
2022/06/20 09:26:11;;;;;;;4.72;1.20;;;;;;;29.55;29.49;98915.79;1722881;83;21155;-45
2022/06/20 09:29:09;;;;;;;4.00;0.98;;;;;;;29.59;29.79;98915.55;1723123;83;20893;-45
2022/06/20 09:31:57;;;;;;;4.30;1.30;;;;;;;29.67;29.72;98899.23;1723040;83;21048;-45
2022/06/20 09:34:47;;;;;;;2.22;1.07;;;;;;;29.75;28.53;98896.72;1723254;83;21605;-45
2022/06/20 09:38:10;;;;;;;2.87;1.00;;;;;;;29.81;28.71;98903.10;1716098;83;21052;-45
2022/06/20 09:40:47;;;;;;;2.45;1.37;;;;;;;29.87;28.92;98904.52;1715347;83;23152;-45
2022/06/20 09:43:35;;;;;;;2.83;1.15;;;;;;;29.93;28.94;98906.72;1713573;82;21607;-45
2022/06/20 09:46:29;;;;;;;2.15;0.78;;;;;;;29.99;28.87;98908.28;1689783;84;20989;-45
2022/06/20 09:49:15;;;;;;;1.57;0.93;;;;;;;30.05;28.37;98905.51;1707580;83;20949;-45
2022/06/20 09:51:59;;;;;;;3.25;1.25;;;;;;;30.07;28.30;98899.53;1694862;84;20992;-45
2022/06/20 09:54:57;;;;;;;2.33;1.05;;;;;;;30.13;27.91;98889.77;1694942;84;21148;-45
2022/06/20 09:58:05;;;;;;;4.15;1.30;;;;;;;30.19;28.21;98884.33;1694692;84;21064;-45
2022/06/20 10:00:43;;;;;;;2.15;1.47;;;;;;;30.25;28.11;98891.34;1694470;84;21107;-45
2022/06/20 10:03:22;;;;;;;1.10;1.00;;;;;;;30.35;28.46;98890.47;1694872;84;20966;-45
2022/06/20 10:06:22;;;;;;;3.47;0.98;;;;;;;30.48;28.01;98883.77;1694406;84;21061;-45
2022/06/20 10:09:14;;;;;;;2.75;1.10;;;;;;;30.52;26.71;98875.26;1694585;84;21233;-45
2022/06/20 10:12:12;;;;;;;2.92;1.10;;;;;;;30.46;26.87;98882.11;1694465;84;21061;-45
2022/06/20 10:15:04;;;;;;;4.72;1.22;;;;;;;30.47;27.15;98866.86;1694508;84;21113;-45
2022/06/20 10:17:41;;;;;;;2.65;1.00;;;;;;;30.54;27.08;98863.56;1694488;84;21000;-45
2022/06/20 10:20:54;;;;;;;2.70;1.02;;;;;;;30.61;27.06;98858.22;1694210;83;21566;-45
2022/06/20 10:24:10;;;;;;;2.85;0.90;;;;;;;30.67;27.24;98860.26;1634731;84;21154;-45
2022/06/20 10:27:14;;;;;;;1.85;1.05;;;;;;;30.78;27.87;98871.46;1694494;83;20985;-45
2022/06/20 10:29:58;;;;;;;3.33;1.30;;;;;;;30.94;27.40;98860.88;1693985;84;21674;-45
2022/06/20 10:32:52;;;;;;;1.92;0.93;;;;;;;31.03;26.59;98853.66;1694537;83;21824;-45
2022/06/20 10:35:49;;;;;;;2.75;1.35;;;;;;;31.12;26.07;98848.42;1693960;83;21059;-46
2022/06/20 10:38:52;;;;;;;1.20;1.02;;;;;;;31.23;25.98;98853.34;1720304;83;21814;-45
2022/06/20 10:41:57;;;;;;;3.15;0.90;;;;;;;31.32;26.15;98848.87;1720101;83;20990;-45
2022/06/20 10:45:02;;;;;;;5.70;1.02;;;;;;;31.39;25.67;98844.15;1720171;83;21046;-45
2022/06/20 10:47:53;;;;;;;3.65;1.07;;;;;;;31.44;25.79;98853.17;1720202;83;21637;-45
2022/06/20 10:50:49;;;;;;;2.65;0.90;;;;;;;31.59;26.29;98852.13;1719085;83;21073;-45
2022/06/20 10:53:50;;;;;;;3.98;0.98;;;;;;;31.78;25.85;98842.63;1719861;83;21162;-45
2022/06/20 10:56:40;;;;;;;2.55;1.02;;;;;;;31.88;25.65;98843.86;1720064;83;21570;-45
2022/06/20 10:59:37;;;;;;;2.52;0.98;;;;;;;31.97;25.22;98834.37;1720045;83;21054;-46
2022/06/20 11:02:16;;;;;;;5.40;1.30;;;;;;;32.09;25.64;98839.29;1720525;83;20982;-45
2022/06/20 11:05:16;;;;;;;2.72;1.00;;;;;;;32.20;24.84;98827.37;1720584;83;21061;-45
2022/06/20 11:08:16;;;;;;;3.00;1.10;;;;;;;32.32;25.41;98822.45;1720407;83;21246;-45
2022/06/20 11:11:06;;;;;;;;;;;;;;;32.44;25.39;98813.30;1722827;83;21539;-45
2022/06/20 11:13:55;;;;;;;1.55;0.98;;;;;;;32.55;24.59;98807.60;1720381;83;20149;-45
2022/06/20 11:16:52;;;;;;;6.00;1.22;;;;;;;32.58;24.33;98803.77;1688870;83;21062;-45
2022/06/20 11:19:36;;;;;;;3.35;1.12;;;;;;;32.71;24.37;98809.55;1720498;83;21022;-46
2022/06/20 11:22:18;;;;;;;2.15;1.10;;;;;;;32.83;24.58;98809.55;1719910;83;21251;-45
2022/06/20 11:25:10;;;;;;;2.62;0.90;;;;;;;32.95;24.01;98807.40;1720126;83;20986;-46
2022/06/20 11:28:01;;;;;;;1.55;0.90;;;;;;;33.02;24.03;98803.35;1720084;83;21041;-45
2022/06/20 11:30:53;;;;;;;2.35;1.25;;;;;;;33.09;24.16;98800.61;1720082;83;21038;-45
2022/06/20 11:34:13;;;;;;;5.05;1.00;;;;;;;33.22;24.02;98803.55;1720297;83;21129;-45
2022/06/20 11:37:14;;;;;;;2.45;1.12;;;;;;;33.30;23.90;98796.71;1720090;83;21243;-45
2022/06/20 11:39:52;;;;;;;2.12;1.10;;;;;;;33.34;23.59;98787.34;1720356;83;20967;-45
2022/06/20 11:43:03;;;;;;;3.83;1.10;;;;;;;33.46;23.40;98788.70;1720481;83;21014;-46
2022/06/20 11:45:42;;;;;;;1.37;0.80;;;;;;;33.60;23.35;98786.86;1720135;83;21077;-46
2022/06/20 11:48:23;;;;;;;2.90;1.00;;;;;;;33.74;23.00;98787.75;1719971;83;21067;-46
2022/06/20 11:51:13;;;;;;;2.77;1.00;;;;;;;33.88;23.82;98789.34;1720128;83;21816;-46
2022/06/20 11:54:02;;;;;;;1.35;0.88;;;;;;;34.08;22.91;98779.59;1719907;83;20991;-46
2022/06/20 11:56:43;;;;;;;2.55;0.90;;;;;;;34.18;22.52;98767.33;1718734;83;21087;-46
2022/06/20 11:59:35;;;;;;;3.83;0.82;;;;;;;34.38;22.42;98763.91;1720358;83;21077;-46
2022/06/20 12:02:30;;;;;;;2.45;1.05;;;;;;;34.55;22.37;98762.98;1718864;83;21058;-46
2022/06/20 12:05:21;;;;;;;2.42;1.02;;;;;;;34.62;22.08;98775.00;1720207;83;21250;-45
2022/06/20 12:08:15;;;;;;;5.58;1.00;;;;;;;34.59;22.09;98766.89;1719945;83;21038;-46
2022/06/20 12:10:56;;;;;;;1.77;0.90;;;;;;;34.62;22.25;98753.13;1720250;83;21505;-46
2022/06/20 12:13:55;;;;;;;2.70;1.12;;;;;;;34.74;22.44;98749.62;1720100;83;21040;-46
2022/06/20 12:16:33;;;;;;;2.42;1.10;;;;;;;34.85;21.75;98745.84;1720181;83;21098;-46
2022/06/20 12:25:17;;;;;;;2.37;1.07;;;;;;;35.05;21.69;98738.80;1720378;83;21084;-46
2022/06/20 12:27:46;;;;;;;1.82;0.95;;;;;;;35.20;21.52;98741.83;1720274;83;21006;-46
2022/06/20 12:30:15;;;;;;;4.37;1.25;;;;;;;35.23;21.97;98743.58;1720491;83;21100;-46
2022/06/20 12:32:44;;;;;;;4.47;1.30;;;;;;;35.21;21.75;98734.90;1720847;83;21287;-46
2022/06/20 12:35:38;;;;;;;1.85;1.00;;;;;;;35.21;21.63;98729.27;1720276;83;21050;-46
2022/06/20 12:38:26;;;;;;;1.52;1.10;;;;;;;35.28;21.99;98727.20;1685792;83;20953;-46
2022/06/20 12:40:57;;;;;;;3.65;1.12;;;;;;;35.37;21.61;98721.12;1659738;86;21315;-46
2022/06/20 12:43:47;;;;;;;1.75;1.00;;;;;;;35.45;21.87;98710.69;1660243;86;21523;-46
2022/06/20 12:46:44;;;;;;;1.30;0.90;;;;;;;35.67;21.73;98702.42;1659839;86;21147;-46